createdAt,value
2022-09-23T00:02:26.000Z,9.10
2022-09-23T00:04:59.491Z,9.07
2022-09-23T00:07:33.322Z,9.27
2022-09-23T00:12:42.297Z,8.15
2022-09-23T00:15:16.330Z,8.93
2022-09-23T00:17:49.793Z,8.45
2022-09-23T00:20:23.297Z,8.57
2022-09-23T00:22:57.886Z,8.73
2022-09-23T00:25:32.757Z,8.35
2022-09-23T00:28:06.330Z,8.45
2022-09-23T00:30:42.437Z,7.90
2022-09-23T00:33:15.814Z,7.70
2022-09-23T00:35:49.942Z,9.02
2022-09-23T00:38:23.296Z,8.10
2022-09-23T00:40:58.506Z,8.18
2022-09-23T00:43:40.207Z,7.85
2022-09-23T00:46:16.835Z,7.63
2022-09-23T00:48:56.930Z,7.95
2022-09-23T00:51:35.502Z,7.65
2022-09-23T00:54:09.728Z,8.18
2022-09-23T00:56:44.770Z,7.85
2022-09-23T00:59:18.746Z,7.57
2022-09-23T01:01:55.738Z,8.50
2022-09-23T01:04:31.225Z,7.53
2022-09-23T01:07:04.996Z,8.35
2022-09-23T01:12:22.867Z,7.10
2022-09-23T01:15:07.564Z,8.73
2022-09-23T01:17:49.374Z,8.27
2022-09-23T01:21:04.153Z,8.18
2022-09-23T01:24:09.721Z,7.50
2022-09-23T01:27:13.198Z,7.70
2022-09-23T01:30:21.419Z,7.95
2022-09-23T01:33:11.325Z,7.38
2022-09-23T01:35:56.969Z,8.48
2022-09-23T01:38:37.180Z,8.95
2022-09-23T01:41:24.878Z,8.38
2022-09-23T01:44:06.127Z,8.38
2022-09-23T01:46:45.713Z,8.65
2022-09-23T01:49:24.496Z,8.50
2022-09-23T01:52:05.524Z,8.82
2022-09-23T01:54:45.581Z,12.00
2022-09-23T01:57:25.750Z,11.02
2022-09-23T02:00:05.836Z,14.23
2022-09-23T02:02:50.459Z,12.68
2022-09-23T02:05:30.815Z,12.20
2022-09-23T02:08:10.438Z,12.88
2022-09-23T02:10:50.393Z,13.60
2022-09-23T02:13:28.903Z,12.75
2022-09-23T02:16:09.853Z,12.80
2022-09-23T02:18:47.568Z,11.98
2022-09-23T02:21:25.839Z,12.13
2022-09-23T02:24:05.606Z,12.50
2022-09-23T02:26:46.708Z,11.18
2022-09-23T02:29:22.696Z,11.63
2022-09-23T02:32:01.707Z,11.05
2022-09-23T02:34:46.895Z,11.20
2022-09-23T02:37:29.039Z,10.73
2022-09-23T02:40:13.149Z,10.65
2022-09-23T02:45:24.204Z,9.85
2022-09-23T02:48:03.889Z,9.80
2022-09-23T02:50:39.424Z,10.48
2022-09-23T02:53:15.921Z,10.15
2022-09-23T02:55:49.901Z,9.15
2022-09-23T02:58:23.544Z,8.93
2022-09-23T03:01:06.287Z,9.63
2022-09-23T03:03:46.077Z,10.43
2022-09-23T03:06:38.707Z,10.63
2022-09-23T03:09:20.819Z,9.55
2022-09-23T03:12:06.776Z,8.75
2022-09-23T03:14:49.606Z,9.73
2022-09-23T03:17:31.469Z,9.00
2022-09-23T03:20:09.495Z,10.13
2022-09-23T03:22:48.054Z,8.73
2022-09-23T03:25:25.983Z,9.20
2022-09-23T03:28:02.020Z,9.60
2022-09-23T03:30:36.845Z,9.02
2022-09-23T03:33:15.657Z,8.35
2022-09-23T03:36:11.722Z,9.13
2022-09-23T03:38:51.189Z,9.25
2022-09-23T03:41:31.384Z,8.93
2022-09-23T03:44:05.140Z,9.00
2022-09-23T03:46:39.344Z,11.35
2022-09-23T03:49:18.777Z,12.90
2022-09-23T03:51:52.412Z,12.77
2022-09-23T03:54:28.104Z,11.65
2022-09-23T03:57:04.200Z,12.27
2022-09-23T03:59:37.639Z,10.77
2022-09-23T04:02:12.095Z,10.63
2022-09-23T04:04:45.787Z,12.05
2022-09-23T04:07:19.858Z,12.63
2022-09-23T04:09:53.598Z,11.05
2022-09-23T04:15:01.876Z,10.10
2022-09-23T04:17:35.724Z,13.15
2022-09-23T04:22:42.605Z,9.70
2022-09-23T04:25:16.143Z,11.90
2022-09-23T04:27:51.179Z,10.48
2022-09-23T04:30:24.601Z,10.32
2022-09-23T04:32:58.058Z,10.05
2022-09-23T04:35:31.464Z,9.90
2022-09-23T04:38:05.196Z,11.93
2022-09-23T04:40:38.663Z,10.80
2022-09-23T04:43:13.735Z,10.35
2022-09-23T04:45:47.340Z,10.57
2022-09-23T04:48:20.778Z,9.32
2022-09-23T04:50:54.459Z,8.73
2022-09-23T04:53:28.811Z,10.75
2022-09-23T04:56:03.645Z,9.82
2022-09-23T04:58:38.686Z,11.10
2022-09-23T05:01:14.290Z,8.90
2022-09-23T05:03:48.333Z,10.10
2022-09-23T05:06:22.692Z,9.70
2022-09-23T05:08:57.262Z,10.27
2022-09-23T05:11:32.641Z,16.98
2022-09-23T05:14:07.543Z,10.23
2022-09-23T05:16:41.344Z,9.57
2022-09-23T05:19:15.625Z,11.38
2022-09-23T05:21:49.025Z,10.57
2022-09-23T05:24:25.571Z,8.90
2022-09-23T05:26:59.007Z,10.13
2022-09-23T05:29:34.090Z,9.75
2022-09-23T05:32:08.177Z,10.63
2022-09-23T05:34:41.728Z,11.35
2022-09-23T05:37:15.246Z,11.32
2022-09-23T05:39:48.773Z,10.30
2022-09-23T05:42:22.338Z,11.05
2022-09-23T05:44:57.370Z,10.57
2022-09-23T05:47:30.966Z,11.93
2022-09-23T05:50:04.528Z,10.95
2022-09-23T05:52:37.997Z,11.95
2022-09-23T05:55:11.852Z,12.00
2022-09-23T06:00:20.442Z,12.35
2022-09-23T06:02:54.099Z,14.18
2022-09-23T06:05:27.615Z,12.98
2022-09-23T06:08:01.146Z,12.02
2022-09-23T06:10:38.123Z,12.63
2022-09-23T06:13:11.836Z,12.27
2022-09-23T06:15:46.984Z,13.13
2022-09-23T06:18:20.467Z,13.52
2022-09-23T06:20:53.950Z,13.40
2022-09-23T06:23:27.465Z,11.60
2022-09-23T06:26:05.235Z,12.68
2022-09-23T06:28:40.546Z,12.23
2022-09-23T06:31:17.428Z,12.48
2022-09-23T06:33:54.762Z,13.20
2022-09-23T06:36:42.411Z,12.40
2022-09-23T06:39:17.860Z,14.30
2022-09-23T06:41:51.391Z,13.82
2022-09-23T06:44:24.896Z,13.40
2022-09-23T06:47:03.891Z,12.98
2022-09-23T06:49:37.537Z,13.18
2022-09-23T06:52:11.135Z,12.10
2022-09-23T06:54:44.667Z,11.88
2022-09-23T06:57:18.145Z,12.13
2022-09-23T06:59:51.774Z,13.10
2022-09-23T07:02:26.868Z,12.48
2022-09-23T07:05:00.467Z,12.00
2022-09-23T07:07:33.967Z,13.52
2022-09-23T07:10:08.789Z,12.57
2022-09-23T07:12:43.064Z,13.00
2022-09-23T07:15:16.987Z,13.77
2022-09-23T07:17:51.826Z,13.10
2022-09-23T07:20:25.292Z,14.25
2022-09-23T07:22:59.075Z,13.35
2022-09-23T07:28:08.081Z,13.43
2022-09-23T07:30:55.338Z,15.73
2022-09-23T07:33:34.808Z,16.50
2022-09-23T07:36:10.629Z,15.88
2022-09-23T07:38:45.659Z,16.42
2022-09-23T07:41:20.357Z,16.13
2022-09-23T07:43:55.524Z,17.75
2022-09-23T07:46:31.259Z,17.70
2022-09-23T07:49:07.163Z,18.90
2022-09-23T07:51:43.143Z,18.48
2022-09-23T07:54:18.480Z,16.63
2022-09-23T07:56:52.061Z,17.35
2022-09-23T07:59:27.169Z,18.75
2022-09-23T08:02:00.914Z,18.55
2022-09-23T08:07:09.494Z,18.35
2022-09-23T08:09:44.992Z,19.52
2022-09-23T08:12:19.758Z,16.88
2022-09-23T08:14:53.387Z,18.80
2022-09-23T08:17:27.112Z,25.80
2022-09-23T08:22:35.348Z,14.98
2022-09-23T08:27:43.753Z,15.82
2022-09-23T08:30:17.458Z,16.42
2022-09-23T08:35:26.355Z,13.45
2022-09-23T08:37:59.899Z,15.25
2022-09-23T08:43:09.549Z,13.05
2022-09-23T08:45:45.159Z,9.85
2022-09-23T08:48:27.330Z,10.45
2022-09-23T08:51:06.189Z,10.60
2022-09-23T08:53:40.539Z,10.48
2022-09-23T08:56:17.389Z,9.90
2022-09-23T08:59:01.464Z,10.02
2022-09-23T09:01:43.242Z,9.65
2022-09-23T09:04:20.282Z,8.68
2022-09-23T09:07:24.551Z,9.18
2022-09-23T09:09:59.762Z,8.32
2022-09-23T09:12:42.050Z,7.55
2022-09-23T09:15:17.853Z,8.38
2022-09-23T09:18:01.448Z,8.57
2022-09-23T09:20:50.110Z,10.20
2022-09-23T09:23:29.353Z,9.02
2022-09-23T09:26:04.166Z,7.05
2022-09-23T09:28:44.384Z,7.47
2022-09-23T09:31:25.565Z,7.00
2022-09-23T09:34:03.916Z,6.00
2022-09-23T09:36:43.571Z,5.45
2022-09-23T09:39:21.823Z,4.50
2022-09-23T09:41:59.758Z,3.90
2022-09-23T09:44:45.063Z,3.58
2022-09-23T09:47:29.827Z,3.45
2022-09-23T09:50:07.770Z,3.45
2022-09-23T09:52:43.296Z,3.05
2022-09-23T09:55:28.614Z,2.42
2022-09-23T09:58:06.048Z,2.92
2022-09-23T10:00:44.327Z,1.10
2022-09-23T10:03:38.782Z,1.13
2022-09-23T10:06:18.243Z,1.33
2022-09-23T10:09:13.937Z,2.05
2022-09-23T10:12:12.210Z,1.95
2022-09-23T10:14:46.517Z,2.25
2022-09-23T10:17:22.594Z,2.20
2022-09-23T10:20:00.480Z,2.53
2022-09-23T10:22:39.880Z,3.15
2022-09-23T10:25:20.823Z,3.22
2022-09-23T10:27:55.736Z,3.30
2022-09-23T10:30:29.876Z,2.65
2022-09-23T10:33:03.773Z,2.30
2022-09-23T10:35:37.551Z,1.90
2022-09-23T10:38:12.024Z,2.13
2022-09-23T10:41:16.902Z,2.20
2022-09-23T10:44:22.349Z,3.13
2022-09-23T10:47:07.478Z,3.25
2022-09-23T10:50:18.400Z,5.45
2022-09-23T10:53:18.417Z,3.42
2022-09-23T10:56:17.036Z,2.92
2022-09-23T10:59:43.648Z,2.58
2022-09-23T11:02:34.546Z,2.17
2022-09-23T11:05:32.961Z,3.03
2022-09-23T11:08:19.647Z,2.58
2022-09-23T11:11:08.961Z,1.90
2022-09-23T11:14:01.200Z,1.70
2022-09-23T11:16:51.079Z,2.08
2022-09-23T11:19:46.536Z,2.03
2022-09-23T11:22:38.106Z,1.95
2022-09-23T11:25:36.306Z,1.52
2022-09-23T11:28:34.978Z,2.85
2022-09-23T11:31:20.584Z,1.70
2022-09-23T11:34:09.948Z,2.33
2022-09-23T11:36:51.248Z,1.60
2022-09-23T11:39:34.009Z,2.10
2022-09-23T11:42:15.561Z,1.98
2022-09-23T11:44:58.208Z,2.03
2022-09-23T11:47:39.968Z,1.90
2022-09-23T11:50:21.079Z,1.63
2022-09-23T11:53:02.242Z,1.65
2022-09-23T11:55:54.082Z,1.60
2022-09-23T11:58:36.620Z,1.70
2022-09-23T12:01:15.964Z,1.98
2022-09-23T12:03:55.032Z,2.00
2022-09-23T12:06:38.274Z,9.75
2022-09-23T12:09:35.714Z,2.42
2022-09-23T12:12:26.854Z,1.85
2022-09-23T12:15:07.957Z,2.13
2022-09-23T12:18:18.381Z,1.75
2022-09-23T12:24:24.904Z,1.58
2022-09-23T12:27:06.247Z,1.48
2022-09-23T12:29:41.940Z,1.58
2022-09-23T12:32:19.390Z,4.38
2022-09-23T12:34:54.552Z,1.10
2022-09-23T12:37:33.544Z,1.17
2022-09-23T12:40:20.222Z,1.45
2022-09-23T12:42:53.856Z,1.38
2022-09-23T12:45:40.779Z,1.50
2022-09-23T12:48:44.450Z,1.98
2022-09-23T12:51:26.208Z,1.70
2022-09-23T12:54:23.819Z,1.65
2022-09-23T12:57:06.973Z,2.00
2022-09-23T12:59:58.830Z,9.40
2022-09-23T13:02:36.424Z,1.65
2022-09-23T13:05:39.961Z,1.48
2022-09-23T13:08:18.301Z,1.90
2022-09-23T13:10:58.635Z,1.70
2022-09-23T13:13:38.276Z,1.60
2022-09-23T13:16:14.552Z,1.63
2022-09-23T13:18:58.932Z,1.70
2022-09-23T13:22:01.652Z,1.20
2022-09-23T13:24:43.804Z,1.05
2022-09-23T13:27:24.096Z,1.20
2022-09-23T13:30:05.686Z,1.30
2022-09-23T13:32:46.231Z,1.27
2022-09-23T13:35:27.815Z,1.27
2022-09-23T13:38:12.209Z,1.45
2022-09-23T13:40:46.496Z,1.33
2022-09-23T13:43:24.616Z,1.10
2022-09-23T13:46:00.918Z,1.23
2022-09-23T13:48:34.583Z,1.17
2022-09-23T13:51:13.842Z,1.50
2022-09-23T13:53:53.517Z,1.27
2022-09-23T13:56:28.826Z,1.02
2022-09-23T13:59:21.769Z,1.35
2022-09-23T14:02:06.842Z,1.00
2022-09-23T14:04:40.482Z,0.90
2022-09-23T14:07:16.683Z,1.17
2022-09-23T14:09:53.321Z,1.00
2022-09-23T14:12:26.970Z,0.93
2022-09-23T14:15:00.515Z,0.90
2022-09-23T14:20:16.073Z,7.30
2022-09-23T14:22:49.840Z,2.17
2022-09-23T14:25:23.372Z,0.75
2022-09-23T14:28:01.646Z,0.95
2022-09-23T14:30:36.386Z,0.80
2022-09-23T14:33:15.992Z,1.10
2022-09-23T14:35:52.664Z,0.93
2022-09-23T14:38:46.207Z,0.73
2022-09-23T14:41:25.873Z,1.20
2022-09-23T14:44:01.576Z,0.90
2022-09-23T14:46:38.246Z,1.38
2022-09-23T14:49:18.773Z,1.35
2022-09-23T14:51:58.461Z,3.78
2022-09-23T14:54:36.167Z,2.00
2022-09-23T14:57:33.701Z,1.35
2022-09-23T15:00:16.957Z,1.23
2022-09-23T15:03:00.194Z,1.30
2022-09-23T15:05:42.330Z,1.00
2022-09-23T15:08:20.302Z,1.10
2022-09-23T15:10:54.462Z,1.10
2022-09-23T15:13:31.400Z,0.90
2022-09-23T15:16:05.889Z,1.25
2022-09-23T15:18:46.165Z,9.23
2022-09-23T15:21:23.414Z,1.88
2022-09-23T15:23:58.732Z,2.00
2022-09-23T15:26:48.804Z,1.23
2022-09-23T15:29:23.099Z,1.27
2022-09-23T15:31:56.650Z,1.40
2022-09-23T15:39:39.051Z,1.77
2022-09-23T15:42:12.788Z,2.20
2022-09-23T15:44:46.281Z,1.52
2022-09-23T15:47:21.867Z,1.40
2022-09-23T15:49:57.989Z,1.50
2022-09-23T15:52:32.813Z,1.98
2022-09-23T15:55:22.757Z,2.60
2022-09-23T15:57:58.739Z,6.88
2022-09-23T16:00:32.239Z,6.25
2022-09-23T16:03:06.798Z,3.20
2022-09-23T16:05:41.378Z,2.30
2022-09-23T16:08:23.516Z,2.17
2022-09-23T16:10:58.052Z,1.98
2022-09-23T16:13:31.570Z,2.20
2022-09-23T16:16:06.227Z,2.33
2022-09-23T16:23:38.979Z,2.65
2022-09-23T16:26:17.811Z,2.75
2022-09-23T16:28:52.892Z,2.70
2022-09-23T16:31:29.807Z,3.40
2022-09-23T16:34:03.546Z,3.15
2022-09-23T16:39:16.037Z,4.30
2022-09-23T16:41:50.051Z,3.28
2022-09-23T16:44:23.643Z,3.88
2022-09-23T16:46:57.851Z,3.95
2022-09-23T16:49:31.460Z,3.03
2022-09-23T16:52:05.533Z,3.00
2022-09-23T16:54:42.321Z,4.90
2022-09-23T16:57:16.014Z,4.85
2022-09-23T17:02:57.643Z,4.80
2022-09-23T17:05:31.243Z,6.80
2022-09-23T17:08:07.958Z,7.03
2022-09-23T17:10:43.497Z,8.98
2022-09-23T17:13:17.754Z,9.43
2022-09-23T17:15:51.286Z,9.10
2022-09-23T17:18:25.041Z,9.82
2022-09-23T17:21:00.866Z,10.73
2022-09-23T17:23:35.774Z,12.98
2022-09-23T17:26:12.638Z,12.65
2022-09-23T17:28:46.153Z,21.00
2022-09-23T17:31:19.938Z,18.50
2022-09-23T17:33:54.495Z,20.33
2022-09-23T17:36:28.400Z,20.42
2022-09-23T17:39:02.187Z,20.65
2022-09-23T17:41:37.592Z,20.45
2022-09-23T17:44:11.743Z,21.80
2022-09-23T17:46:45.420Z,21.60
2022-09-23T17:49:19.163Z,21.90
2022-09-23T17:54:27.294Z,20.60
2022-09-23T17:57:02.474Z,20.92
2022-09-23T17:59:39.139Z,20.98
2022-09-23T18:02:15.657Z,20.48
2022-09-23T18:04:49.884Z,21.27
2022-09-23T18:07:23.841Z,21.63
2022-09-23T18:09:57.837Z,22.38
2022-09-23T18:12:33.134Z,24.27
2022-09-23T18:15:07.577Z,23.67
2022-09-23T18:17:42.150Z,24.65
2022-09-23T18:20:16.445Z,24.55
2022-09-23T18:22:50.303Z,24.65
2022-09-23T18:25:38.797Z,25.60
2022-09-23T18:28:14.841Z,23.38
2022-09-23T18:30:54.706Z,24.73
2022-09-23T18:33:28.656Z,24.02
2022-09-23T18:36:02.632Z,25.58
2022-09-23T18:38:37.462Z,24.13
2022-09-23T18:41:11.255Z,25.98
2022-09-23T18:46:24.097Z,31.35
2022-09-23T18:49:16.223Z,36.25
2022-09-23T18:51:52.517Z,35.42
2022-09-23T18:54:27.969Z,41.22
2022-09-23T18:57:02.255Z,34.95
2022-09-23T18:59:38.415Z,31.67
2022-09-23T19:02:12.925Z,29.00
2022-09-23T19:04:47.876Z,29.40
2022-09-23T19:07:22.222Z,29.00
2022-09-23T19:09:56.230Z,28.77
2022-09-23T19:12:30.381Z,32.15
2022-09-23T19:15:05.969Z,30.73
2022-09-23T19:17:39.655Z,32.90
2022-09-23T19:22:48.988Z,31.33
2022-09-23T19:25:23.369Z,32.03
2022-09-23T19:27:57.412Z,33.60
2022-09-23T19:33:06.639Z,31.73
2022-09-23T19:35:48.788Z,35.42
2022-09-23T19:38:22.734Z,32.13
2022-09-23T19:40:58.162Z,31.17
2022-09-23T19:43:32.007Z,26.65
2022-09-23T19:48:41.698Z,28.27
2022-09-23T19:51:16.947Z,31.33
2022-09-23T19:53:51.546Z,32.33
2022-09-23T19:56:25.895Z,31.10
2022-09-23T19:59:00.575Z,31.20
2022-09-23T20:01:36.577Z,30.73
2022-09-23T20:04:11.626Z,29.92
2022-09-23T20:06:46.214Z,31.52
2022-09-23T20:09:20.124Z,29.52
2022-09-23T20:11:53.725Z,30.60
2022-09-23T20:14:27.375Z,31.75
2022-09-23T20:17:02.578Z,31.23
2022-09-23T20:19:36.717Z,30.83
2022-09-23T20:22:33.208Z,31.98
2022-09-23T20:25:13.281Z,32.08
2022-09-23T20:27:52.723Z,35.50
2022-09-23T20:30:26.234Z,33.35
2022-09-23T20:33:01.206Z,36.25
2022-09-23T20:35:34.752Z,35.00
2022-09-23T20:38:08.357Z,35.13
2022-09-23T20:40:42.038Z,35.95
2022-09-23T20:43:16.276Z,37.40
2022-09-23T20:45:51.716Z,41.33
2022-09-23T20:48:26.707Z,44.50
2022-09-23T20:51:03.356Z,44.20
2022-09-23T20:53:36.821Z,41.38
2022-09-23T20:56:10.624Z,43.38
2022-09-23T20:58:44.703Z,43.28
2022-09-23T21:01:18.372Z,40.60
2022-09-23T21:03:54.028Z,39.25
2022-09-23T21:06:27.839Z,42.47
2022-09-23T21:09:01.365Z,40.88
2022-09-23T21:11:35.067Z,40.25
2022-09-23T21:14:08.792Z,41.92
2022-09-23T21:19:17.223Z,41.88
2022-09-23T21:21:50.750Z,40.85
2022-09-23T21:24:57.325Z,42.25
2022-09-23T21:27:17.950Z,42.70
2022-09-23T21:29:51.599Z,39.35
2022-09-23T21:32:25.197Z,40.25
2022-09-23T21:35:00.179Z,40.38
2022-09-23T21:37:33.907Z,39.28
2022-09-23T21:40:37.367Z,38.92
2022-09-23T21:43:10.903Z,44.78
2022-09-23T21:45:44.516Z,40.88
2022-09-23T21:48:18.077Z,42.45
2022-09-23T21:51:01.012Z,41.70
2022-09-23T21:53:36.471Z,41.95
2022-09-23T21:56:14.027Z,41.72
2022-09-23T21:58:51.363Z,43.97
2022-09-23T22:01:26.523Z,42.38
2022-09-23T22:04:05.308Z,40.70
2022-09-23T22:06:40.798Z,42.10
2022-09-23T22:09:16.308Z,43.28
2022-09-23T22:12:10.007Z,46.03
2022-09-23T22:14:43.588Z,48.85
2022-09-23T22:17:17.089Z,43.47
2022-09-23T22:19:51.424Z,43.63
2022-09-23T22:22:26.396Z,45.75
2022-09-23T22:25:00.044Z,44.38
2022-09-23T22:27:53.625Z,43.67
2022-09-23T22:30:44.722Z,44.55
2022-09-23T22:33:18.237Z,42.75
2022-09-23T22:35:52.254Z,43.38
2022-09-23T22:38:27.806Z,42.30
2022-09-23T22:41:01.400Z,39.83
2022-09-23T22:43:35.021Z,38.90
2022-09-23T22:46:09.509Z,38.72
2022-09-23T22:48:43.118Z,40.33
2022-09-23T22:51:16.585Z,38.22
2022-09-23T22:53:52.709Z,37.08
2022-09-23T22:56:26.253Z,36.10
2022-09-23T22:59:02.188Z,34.25
2022-09-23T23:01:36.699Z,31.15
2022-09-23T23:04:12.557Z,32.28
2022-09-23T23:06:46.209Z,33.75
2022-09-23T23:09:21.202Z,30.65
2022-09-23T23:11:54.806Z,31.67
2022-09-23T23:14:28.369Z,29.27
2022-09-23T23:17:01.859Z,27.75
2022-09-23T23:19:37.471Z,29.83
2022-09-23T23:22:11.030Z,25.90
2022-09-23T23:24:45.979Z,27.13
2022-09-23T23:27:19.608Z,25.25
2022-09-23T23:29:53.092Z,26.05
2022-09-23T23:32:26.639Z,23.75
2022-09-23T23:35:00.224Z,23.90
2022-09-23T23:37:33.757Z,23.25
2022-09-23T23:40:10.181Z,22.98
2022-09-23T23:42:43.673Z,21.15
2022-09-23T23:45:17.583Z,20.60
2022-09-23T23:47:51.150Z,20.08
2022-09-23T23:50:24.767Z,19.73
2022-09-23T23:52:59.698Z,21.38
2022-09-23T23:55:39.078Z,19.65
2022-09-23T23:58:12.601Z,20.85
